sensor_id;sensor_type;location;lat;lon;timestamp;temperature;humidity
64705;DHT22;51131;52.298;13.686;2023-04-03T00:01:15;17.70;50.20
64705;DHT22;51131;52.298;13.686;2023-04-03T00:03:41;17.70;49.70
64705;DHT22;51131;52.298;13.686;2023-04-03T00:06:08;17.60;49.50
64705;DHT22;51131;52.298;13.686;2023-04-03T00:08:37;17.60;50.10
64705;DHT22;51131;52.298;13.686;2023-04-03T00:11:04;17.70;49.90
64705;DHT22;51131;52.298;13.686;2023-04-03T00:13:32;17.60;49.90
64705;DHT22;51131;52.298;13.686;2023-04-03T00:15:58;17.60;49.80
64705;DHT22;51131;52.298;13.686;2023-04-03T00:18:25;17.60;49.70
64705;DHT22;51131;52.298;13.686;2023-04-03T00:20:52;17.70;49.90
64705;DHT22;51131;52.298;13.686;2023-04-03T00:23:18;17.60;49.80
64705;DHT22;51131;52.298;13.686;2023-04-03T00:25:45;17.60;49.50
64705;DHT22;51131;52.298;13.686;2023-04-03T00:28:12;17.60;49.50
64705;DHT22;51131;52.298;13.686;2023-04-03T00:30:38;17.60;50.00
64705;DHT22;51131;52.298;13.686;2023-04-03T00:33:05;17.60;50.10
64705;DHT22;51131;52.298;13.686;2023-04-03T00:35:33;17.60;49.70
64705;DHT22;51131;52.298;13.686;2023-04-03T00:38:00;17.60;49.80
64705;DHT22;51131;52.298;13.686;2023-04-03T00:40:27;17.70;50.10
64705;DHT22;51131;52.298;13.686;2023-04-03T00:42:58;17.60;49.70
64705;DHT22;51131;52.298;13.686;2023-04-03T00:45:27;17.70;50.40
64705;DHT22;51131;52.298;13.686;2023-04-03T00:47:54;17.70;50.00
64705;DHT22;51131;52.298;13.686;2023-04-03T00:50:21;17.80;49.80
64705;DHT22;51131;52.298;13.686;2023-04-03T00:52:47;17.80;49.40
64705;DHT22;51131;52.298;13.686;2023-04-03T00:55:15;17.80;49.70
64705;DHT22;51131;52.298;13.686;2023-04-03T00:57:42;18.00;49.60
64705;DHT22;51131;52.298;13.686;2023-04-03T01:00:10;17.80;49.70
64705;DHT22;51131;52.298;13.686;2023-04-03T01:02:38;17.80;50.00
64705;DHT22;51131;52.298;13.686;2023-04-03T01:05:07;17.80;49.60
64705;DHT22;51131;52.298;13.686;2023-04-03T01:07:34;17.80;49.00
64705;DHT22;51131;52.298;13.686;2023-04-03T01:10:04;17.90;49.90
64705;DHT22;51131;52.298;13.686;2023-04-03T01:12:33;17.80;49.70
64705;DHT22;51131;52.298;13.686;2023-04-03T01:15:02;17.70;49.80
64705;DHT22;51131;52.298;13.686;2023-04-03T01:17:43;17.70;49.80
64705;DHT22;51131;52.298;13.686;2023-04-03T01:23:01;17.70;49.10
64705;DHT22;51131;52.298;13.686;2023-04-03T01:25:32;17.70;49.80
64705;DHT22;51131;52.298;13.686;2023-04-03T01:27:59;17.70;49.50
64705;DHT22;51131;52.298;13.686;2023-04-03T01:30:28;17.70;49.70
64705;DHT22;51131;52.298;13.686;2023-04-03T01:32:56;17.70;49.80
64705;DHT22;51131;52.298;13.686;2023-04-03T01:35:23;17.60;49.20
64705;DHT22;51131;52.298;13.686;2023-04-03T01:37:50;17.70;50.00
64705;DHT22;51131;52.298;13.686;2023-04-03T01:40:16;17.70;50.10
64705;DHT22;51131;52.298;13.686;2023-04-03T01:42:43;17.70;50.00
64705;DHT22;51131;52.298;13.686;2023-04-03T01:45:09;17.70;49.20
64705;DHT22;51131;52.298;13.686;2023-04-03T01:47:36;17.70;49.80
64705;DHT22;51131;52.298;13.686;2023-04-03T01:50:03;17.70;50.20
64705;DHT22;51131;52.298;13.686;2023-04-03T01:52:30;17.70;49.80
64705;DHT22;51131;52.298;13.686;2023-04-03T01:54:56;17.70;49.50
64705;DHT22;51131;52.298;13.686;2023-04-03T01:57:23;17.70;49.70
64705;DHT22;51131;52.298;13.686;2023-04-03T01:59:50;17.50;49.70
64705;DHT22;51131;52.298;13.686;2023-04-03T02:02:17;17.70;49.30
64705;DHT22;51131;52.298;13.686;2023-04-03T02:04:45;17.70;49.60
64705;DHT22;51131;52.298;13.686;2023-04-03T02:07:12;17.70;49.20
64705;DHT22;51131;52.298;13.686;2023-04-03T02:09:38;17.70;50.20
64705;DHT22;51131;52.298;13.686;2023-04-03T02:12:05;17.70;49.60
64705;DHT22;51131;52.298;13.686;2023-04-03T02:14:31;17.70;49.20
64705;DHT22;51131;52.298;13.686;2023-04-03T02:16:59;17.70;49.70
64705;DHT22;51131;52.298;13.686;2023-04-03T02:19:27;17.70;49.60
64705;DHT22;51131;52.298;13.686;2023-04-03T02:21:53;17.70;49.80
64705;DHT22;51131;52.298;13.686;2023-04-03T02:24:20;17.70;49.90
64705;DHT22;51131;52.298;13.686;2023-04-03T02:26:46;17.70;49.60
64705;DHT22;51131;52.298;13.686;2023-04-03T02:29:13;17.80;49.90
64705;DHT22;51131;52.298;13.686;2023-04-03T02:31:40;17.70;49.60
64705;DHT22;51131;52.298;13.686;2023-04-03T02:34:06;17.70;49.80
64705;DHT22;51131;52.298;13.686;2023-04-03T02:36:33;17.70;49.40
64705;DHT22;51131;52.298;13.686;2023-04-03T02:38:59;17.70;49.70
64705;DHT22;51131;52.298;13.686;2023-04-03T02:41:26;17.70;50.20
64705;DHT22;51131;52.298;13.686;2023-04-03T02:44:00;17.70;49.90
64705;DHT22;51131;52.298;13.686;2023-04-03T02:46:26;17.70;50.00
64705;DHT22;51131;52.298;13.686;2023-04-03T02:48:53;17.70;49.80
64705;DHT22;51131;52.298;13.686;2023-04-03T02:51:20;17.70;50.10
64705;DHT22;51131;52.298;13.686;2023-04-03T02:53:47;17.70;49.40
64705;DHT22;51131;52.298;13.686;2023-04-03T02:56:13;17.70;49.60
64705;DHT22;51131;52.298;13.686;2023-04-03T02:58:40;17.70;49.00
64705;DHT22;51131;52.298;13.686;2023-04-03T03:01:07;17.70;49.40
64705;DHT22;51131;52.298;13.686;2023-04-03T03:03:33;17.80;50.20
64705;DHT22;51131;52.298;13.686;2023-04-03T03:06:01;17.70;50.00
64705;DHT22;51131;52.298;13.686;2023-04-03T03:08:27;17.80;49.60
64705;DHT22;51131;52.298;13.686;2023-04-03T03:10:54;17.80;49.40
64705;DHT22;51131;52.298;13.686;2023-04-03T03:13:21;17.90;49.30
64705;DHT22;51131;52.298;13.686;2023-04-03T03:15:47;17.90;49.10
64705;DHT22;51131;52.298;13.686;2023-04-03T03:18:14;17.90;48.80
64705;DHT22;51131;52.298;13.686;2023-04-03T03:20:40;17.90;49.10
64705;DHT22;51131;52.298;13.686;2023-04-03T03:23:07;17.90;49.10
64705;DHT22;51131;52.298;13.686;2023-04-03T03:25:37;17.90;49.40
64705;DHT22;51131;52.298;13.686;2023-04-03T03:28:04;17.90;49.30
64705;DHT22;51131;52.298;13.686;2023-04-03T03:30:31;17.80;49.20
64705;DHT22;51131;52.298;13.686;2023-04-03T03:32:58;17.80;49.70
64705;DHT22;51131;52.298;13.686;2023-04-03T03:35:25;17.80;49.10
64705;DHT22;51131;52.298;13.686;2023-04-03T03:37:52;17.80;49.00
64705;DHT22;51131;52.298;13.686;2023-04-03T03:40:18;17.90;49.30
64705;DHT22;51131;52.298;13.686;2023-04-03T03:42:45;17.80;48.90
64705;DHT22;51131;52.298;13.686;2023-04-03T03:45:11;17.80;49.80
64705;DHT22;51131;52.298;13.686;2023-04-03T03:47:38;17.80;49.60
64705;DHT22;51131;52.298;13.686;2023-04-03T03:50:06;17.80;48.90
64705;DHT22;51131;52.298;13.686;2023-04-03T03:52:33;17.80;49.10
64705;DHT22;51131;52.298;13.686;2023-04-03T03:54:59;17.80;49.80
64705;DHT22;51131;52.298;13.686;2023-04-03T03:57:26;17.80;49.60
64705;DHT22;51131;52.298;13.686;2023-04-03T03:59:55;17.80;49.60
64705;DHT22;51131;52.298;13.686;2023-04-03T04:02:21;17.80;49.10
64705;DHT22;51131;52.298;13.686;2023-04-03T04:04:48;17.70;49.80
64705;DHT22;51131;52.298;13.686;2023-04-03T04:07:15;18.20;49.90
64705;DHT22;51131;52.298;13.686;2023-04-03T04:09:41;17.70;49.10
64705;DHT22;51131;52.298;13.686;2023-04-03T04:12:08;17.70;48.80
64705;DHT22;51131;52.298;13.686;2023-04-03T04:14:35;17.70;49.70
64705;DHT22;51131;52.298;13.686;2023-04-03T04:17:01;18.20;50.30
64705;DHT22;51131;52.298;13.686;2023-04-03T04:19:28;17.70;49.60
64705;DHT22;51131;52.298;13.686;2023-04-03T04:21:55;17.70;49.00
64705;DHT22;51131;52.298;13.686;2023-04-03T04:24:22;17.70;50.00
64705;DHT22;51131;52.298;13.686;2023-04-03T04:26:51;17.70;49.30
64705;DHT22;51131;52.298;13.686;2023-04-03T04:29:18;17.70;49.00
64705;DHT22;51131;52.298;13.686;2023-04-03T04:31:44;17.70;49.10
64705;DHT22;51131;52.298;13.686;2023-04-03T04:34:11;17.70;49.80
64705;DHT22;51131;52.298;13.686;2023-04-03T04:36:39;17.70;49.40
64705;DHT22;51131;52.298;13.686;2023-04-03T04:39:06;17.70;49.60
64705;DHT22;51131;52.298;13.686;2023-04-03T04:41:33;17.80;49.00
64705;DHT22;51131;52.298;13.686;2023-04-03T04:44:00;17.90;49.80
64705;DHT22;51131;52.298;13.686;2023-04-03T04:46:27;17.70;49.30
64705;DHT22;51131;52.298;13.686;2023-04-03T04:48:54;17.70;49.10
64705;DHT22;51131;52.298;13.686;2023-04-03T04:51:20;17.70;49.20
64705;DHT22;51131;52.298;13.686;2023-04-03T04:53:47;17.70;49.70
64705;DHT22;51131;52.298;13.686;2023-04-03T04:56:13;17.70;49.30
64705;DHT22;51131;52.298;13.686;2023-04-03T04:58:40;17.70;49.00
64705;DHT22;51131;52.298;13.686;2023-04-03T05:01:08;17.70;49.00
64705;DHT22;51131;52.298;13.686;2023-04-03T05:03:34;17.70;49.80
64705;DHT22;51131;52.298;13.686;2023-04-03T05:06:01;17.70;49.30
64705;DHT22;51131;52.298;13.686;2023-04-03T05:08:28;17.70;48.90
64705;DHT22;51131;52.298;13.686;2023-04-03T05:10:55;17.70;48.80
64705;DHT22;51131;52.298;13.686;2023-04-03T05:13:22;17.70;49.80
64705;DHT22;51131;52.298;13.686;2023-04-03T05:15:48;17.70;49.40
64705;DHT22;51131;52.298;13.686;2023-04-03T05:18:15;17.70;49.10
64705;DHT22;51131;52.298;13.686;2023-04-03T05:20:42;17.70;49.00
64705;DHT22;51131;52.298;13.686;2023-04-03T05:23:10;17.70;49.40
64705;DHT22;51131;52.298;13.686;2023-04-03T05:25:38;17.70;49.10
64705;DHT22;51131;52.298;13.686;2023-04-03T05:28:04;17.80;49.50
64705;DHT22;51131;52.298;13.686;2023-04-03T05:30:31;17.70;49.10
64705;DHT22;51131;52.298;13.686;2023-04-03T05:32:58;17.70;49.50
64705;DHT22;51131;52.298;13.686;2023-04-03T05:35:25;18.10;49.80
64705;DHT22;51131;52.298;13.686;2023-04-03T05:37:52;17.90;49.50
64705;DHT22;51131;52.298;13.686;2023-04-03T05:40:18;17.80;49.20
64705;DHT22;51131;52.298;13.686;2023-04-03T05:42:45;17.80;49.00
64705;DHT22;51131;52.298;13.686;2023-04-03T05:45:12;17.90;48.50
64705;DHT22;51131;52.298;13.686;2023-04-03T05:47:38;17.90;48.80
64705;DHT22;51131;52.298;13.686;2023-04-03T05:50:06;17.90;48.90
64705;DHT22;51131;52.298;13.686;2023-04-03T05:52:36;17.90;48.70
64705;DHT22;51131;52.298;13.686;2023-04-03T05:55:03;17.80;49.00
64705;DHT22;51131;52.298;13.686;2023-04-03T05:57:30;17.80;48.80
64705;DHT22;51131;52.298;13.686;2023-04-03T05:59:56;17.80;49.20
64705;DHT22;51131;52.298;13.686;2023-04-03T06:02:23;17.80;48.40
64705;DHT22;51131;52.298;13.686;2023-04-03T06:04:50;17.80;49.30
64705;DHT22;51131;52.298;13.686;2023-04-03T06:07:18;17.80;49.10
64705;DHT22;51131;52.298;13.686;2023-04-03T06:09:47;17.80;49.00
64705;DHT22;51131;52.298;13.686;2023-04-03T06:12:14;17.80;48.90
64705;DHT22;51131;52.298;13.686;2023-04-03T06:14:41;17.70;48.90
64705;DHT22;51131;52.298;13.686;2023-04-03T06:17:07;17.70;49.40
64705;DHT22;51131;52.298;13.686;2023-04-03T06:19:35;17.70;49.00
64705;DHT22;51131;52.298;13.686;2023-04-03T06:22:02;17.70;48.80
64705;DHT22;51131;52.298;13.686;2023-04-03T06:24:29;17.60;48.30
64705;DHT22;51131;52.298;13.686;2023-04-03T06:26:56;17.70;48.40
64705;DHT22;51131;52.298;13.686;2023-04-03T06:29:23;17.90;48.70
64705;DHT22;51131;52.298;13.686;2023-04-03T06:31:50;17.60;48.80
64705;DHT22;51131;52.298;13.686;2023-04-03T06:34:17;17.60;48.70
64705;DHT22;51131;52.298;13.686;2023-04-03T06:36:44;17.60;48.50
64705;DHT22;51131;52.298;13.686;2023-04-03T06:39:16;17.60;48.40
64705;DHT22;51131;52.298;13.686;2023-04-03T06:41:43;17.70;48.50
64705;DHT22;51131;52.298;13.686;2023-04-03T06:44:10;17.60;48.60
64705;DHT22;51131;52.298;13.686;2023-04-03T06:46:42;17.60;48.30
64705;DHT22;51131;52.298;13.686;2023-04-03T06:49:09;17.60;48.30
64705;DHT22;51131;52.298;13.686;2023-04-03T06:51:36;17.60;48.00
64705;DHT22;51131;52.298;13.686;2023-04-03T06:54:03;17.60;47.90
64705;DHT22;51131;52.298;13.686;2023-04-03T06:56:29;17.50;47.30
64705;DHT22;51131;52.298;13.686;2023-04-03T06:58:57;17.50;47.20
64705;DHT22;51131;52.298;13.686;2023-04-03T07:01:32;17.50;46.90
64705;DHT22;51131;52.298;13.686;2023-04-03T07:03:58;17.50;47.10
64705;DHT22;51131;52.298;13.686;2023-04-03T07:06:25;17.50;46.80
64705;DHT22;51131;52.298;13.686;2023-04-03T07:08:53;17.40;47.00
64705;DHT22;51131;52.298;13.686;2023-04-03T07:11:20;17.50;46.70
64705;DHT22;51131;52.298;13.686;2023-04-03T07:13:47;17.40;46.00
64705;DHT22;51131;52.298;13.686;2023-04-03T07:16:13;17.40;46.30
64705;DHT22;51131;52.298;13.686;2023-04-03T07:18:40;17.60;46.60
64705;DHT22;51131;52.298;13.686;2023-04-03T07:21:07;17.40;46.50
64705;DHT22;51131;52.298;13.686;2023-04-03T07:23:34;17.40;46.30
64705;DHT22;51131;52.298;13.686;2023-04-03T07:26:01;17.40;46.60
64705;DHT22;51131;52.298;13.686;2023-04-03T07:28:27;17.40;46.70
64705;DHT22;51131;52.298;13.686;2023-04-03T07:30:59;17.50;46.30
64705;DHT22;51131;52.298;13.686;2023-04-03T07:33:26;17.60;46.60
64705;DHT22;51131;52.298;13.686;2023-04-03T07:35:53;17.60;46.50
64705;DHT22;51131;52.298;13.686;2023-04-03T07:38:20;17.60;46.30
64705;DHT22;51131;52.298;13.686;2023-04-03T07:40:47;17.60;46.40
64705;DHT22;51131;52.298;13.686;2023-04-03T07:43:18;17.70;46.40
64705;DHT22;51131;52.298;13.686;2023-04-03T07:45:45;17.60;46.20
64705;DHT22;51131;52.298;13.686;2023-04-03T07:48:11;17.60;45.60
64705;DHT22;51131;52.298;13.686;2023-04-03T07:50:41;17.50;45.70
64705;DHT22;51131;52.298;13.686;2023-04-03T07:53:08;17.50;45.70
64705;DHT22;51131;52.298;13.686;2023-04-03T07:55:35;17.60;46.00
64705;DHT22;51131;52.298;13.686;2023-04-03T07:58:09;17.50;45.50
64705;DHT22;51131;52.298;13.686;2023-04-03T08:00:37;17.50;45.80
64705;DHT22;51131;52.298;13.686;2023-04-03T08:03:04;17.50;45.80
64705;DHT22;51131;52.298;13.686;2023-04-03T08:05:31;17.50;45.80
64705;DHT22;51131;52.298;13.686;2023-04-03T08:07:58;17.60;46.00
64705;DHT22;51131;52.298;13.686;2023-04-03T08:10:24;17.50;45.70
64705;DHT22;51131;52.298;13.686;2023-04-03T08:12:51;17.50;45.00
64705;DHT22;51131;52.298;13.686;2023-04-03T08:15:18;17.50;44.90
64705;DHT22;51131;52.298;13.686;2023-04-03T08:17:45;17.50;45.60
64705;DHT22;51131;52.298;13.686;2023-04-03T08:20:12;17.70;45.60
64705;DHT22;51131;52.298;13.686;2023-04-03T08:22:38;17.50;45.80
64705;DHT22;51131;52.298;13.686;2023-04-03T08:25:05;17.50;45.80
64705;DHT22;51131;52.298;13.686;2023-04-03T08:27:32;17.50;45.70
64705;DHT22;51131;52.298;13.686;2023-04-03T08:29:59;17.50;45.50
64705;DHT22;51131;52.298;13.686;2023-04-03T08:32:26;17.80;45.70
64705;DHT22;51131;52.298;13.686;2023-04-03T08:34:53;17.50;45.70
64705;DHT22;51131;52.298;13.686;2023-04-03T08:37:20;17.50;45.30
64705;DHT22;51131;52.298;13.686;2023-04-03T08:39:46;17.50;45.70
64705;DHT22;51131;52.298;13.686;2023-04-03T08:42:16;17.50;45.70
64705;DHT22;51131;52.298;13.686;2023-04-03T08:44:48;17.50;46.10
64705;DHT22;51131;52.298;13.686;2023-04-03T08:49:46;17.50;46.10
64705;DHT22;51131;52.298;13.686;2023-04-03T08:52:19;17.40;46.30
64705;DHT22;51131;52.298;13.686;2023-04-03T08:54:56;17.50;46.10
64705;DHT22;51131;52.298;13.686;2023-04-03T08:57:28;17.50;46.30
64705;DHT22;51131;52.298;13.686;2023-04-03T08:59:56;17.50;46.60
64705;DHT22;51131;52.298;13.686;2023-04-03T09:02:25;17.40;46.30
64705;DHT22;51131;52.298;13.686;2023-04-03T09:04:54;17.50;46.50
64705;DHT22;51131;52.298;13.686;2023-04-03T09:07:30;17.50;46.40
64705;DHT22;51131;52.298;13.686;2023-04-03T09:09:59;17.50;46.10
64705;DHT22;51131;52.298;13.686;2023-04-03T09:12:27;17.40;46.00
64705;DHT22;51131;52.298;13.686;2023-04-03T09:19:54;17.50;46.50
64705;DHT22;51131;52.298;13.686;2023-04-03T09:22:24;17.50;46.30
64705;DHT22;51131;52.298;13.686;2023-04-03T09:24:59;17.50;45.90
64705;DHT22;51131;52.298;13.686;2023-04-03T09:27:27;17.50;46.40
64705;DHT22;51131;52.298;13.686;2023-04-03T09:29:55;17.60;46.50
64705;DHT22;51131;52.298;13.686;2023-04-03T09:32:30;17.70;46.80
64705;DHT22;51131;52.298;13.686;2023-04-03T09:34:59;17.70;45.90
64705;DHT22;51131;52.298;13.686;2023-04-03T09:40:04;17.70;46.00
64705;DHT22;51131;52.298;13.686;2023-04-03T09:42:32;17.70;45.80
64705;DHT22;51131;52.298;13.686;2023-04-03T09:44:59;17.70;45.10
64705;DHT22;51131;52.298;13.686;2023-04-03T09:47:30;17.70;45.60
64705;DHT22;51131;52.298;13.686;2023-04-03T09:52:43;17.60;45.30
64705;DHT22;51131;52.298;13.686;2023-04-03T09:55:28;17.60;44.70
64705;DHT22;51131;52.298;13.686;2023-04-03T09:58:00;17.60;44.40
64705;DHT22;51131;52.298;13.686;2023-04-03T10:00:35;17.60;45.30
64705;DHT22;51131;52.298;13.686;2023-04-03T10:03:02;17.60;44.90
64705;DHT22;51131;52.298;13.686;2023-04-03T10:05:31;17.60;45.10
64705;DHT22;51131;52.298;13.686;2023-04-03T10:10:36;17.50;44.90
64705;DHT22;51131;52.298;13.686;2023-04-03T10:13:05;17.50;45.30
64705;DHT22;51131;52.298;13.686;2023-04-03T10:15:34;17.50;46.10
64705;DHT22;51131;52.298;13.686;2023-04-03T10:18:04;17.50;46.20
64705;DHT22;51131;52.298;13.686;2023-04-03T10:20:49;17.40;46.80
64705;DHT22;51131;52.298;13.686;2023-04-03T10:23:21;17.40;51.70
64705;DHT22;51131;52.298;13.686;2023-04-03T10:33:39;17.40;48.00
64705;DHT22;51131;52.298;13.686;2023-04-03T10:36:26;17.40;47.90
64705;DHT22;51131;52.298;13.686;2023-04-03T10:52:54;17.50;50.30
64705;DHT22;51131;52.298;13.686;2023-04-03T10:57:53;17.50;51.20
64705;DHT22;51131;52.298;13.686;2023-04-03T11:00:23;17.50;49.70
64705;DHT22;51131;52.298;13.686;2023-04-03T11:03:00;17.50;51.00
64705;DHT22;51131;52.298;13.686;2023-04-03T11:07:59;17.50;49.80
64705;DHT22;51131;52.298;13.686;2023-04-03T11:10:35;17.40;49.30
64705;DHT22;51131;52.298;13.686;2023-04-03T11:13:10;17.50;50.80
64705;DHT22;51131;52.298;13.686;2023-04-03T11:15:38;17.40;51.40
64705;DHT22;51131;52.298;13.686;2023-04-03T11:18:09;17.30;51.10
64705;DHT22;51131;52.298;13.686;2023-04-03T11:20:38;17.40;51.10
64705;DHT22;51131;52.298;13.686;2023-04-03T11:23:13;17.40;52.00
64705;DHT22;51131;52.298;13.686;2023-04-03T11:25:45;17.40;50.40
64705;DHT22;51131;52.298;13.686;2023-04-03T11:28:13;17.40;50.40
64705;DHT22;51131;52.298;13.686;2023-04-03T11:30:44;17.40;50.90
64705;DHT22;51131;52.298;13.686;2023-04-03T11:33:19;17.40;50.50
64705;DHT22;51131;52.298;13.686;2023-04-03T11:35:49;17.40;51.10
64705;DHT22;51131;52.298;13.686;2023-04-03T11:38:20;17.40;51.50
64705;DHT22;51131;52.298;13.686;2023-04-03T11:40:48;17.40;51.20
64705;DHT22;51131;52.298;13.686;2023-04-03T11:45:50;17.30;50.80
64705;DHT22;51131;52.298;13.686;2023-04-03T11:50:51;17.40;51.70
64705;DHT22;51131;52.298;13.686;2023-04-03T11:56:04;17.30;51.20
64705;DHT22;51131;52.298;13.686;2023-04-03T11:58:32;17.30;52.50
64705;DHT22;51131;52.298;13.686;2023-04-03T12:01:06;17.30;51.40
64705;DHT22;51131;52.298;13.686;2023-04-03T12:03:57;17.30;52.30
64705;DHT22;51131;52.298;13.686;2023-04-03T12:09:04;17.30;51.80
64705;DHT22;51131;52.298;13.686;2023-04-03T12:11:42;17.30;51.60
64705;DHT22;51131;52.298;13.686;2023-04-03T12:14:14;17.30;52.20
64705;DHT22;51131;52.298;13.686;2023-04-03T12:26:43;17.30;53.40
64705;DHT22;51131;52.298;13.686;2023-04-03T12:29:20;17.30;52.80
64705;DHT22;51131;52.298;13.686;2023-04-03T12:31:55;17.40;54.50
64705;DHT22;51131;52.298;13.686;2023-04-03T12:39:52;17.50;54.20
64705;DHT22;51131;52.298;13.686;2023-04-03T12:44:56;17.50;53.90
64705;DHT22;51131;52.298;13.686;2023-04-03T12:47:28;17.50;55.40
64705;DHT22;51131;52.298;13.686;2023-04-03T12:49:55;17.50;54.70
64705;DHT22;51131;52.298;13.686;2023-04-03T12:54:49;17.50;55.00
64705;DHT22;51131;52.298;13.686;2023-04-03T12:57:22;17.50;54.40
64705;DHT22;51131;52.298;13.686;2023-04-03T12:59:50;17.50;54.10
64705;DHT22;51131;52.298;13.686;2023-04-03T13:02:24;17.40;54.60
64705;DHT22;51131;52.298;13.686;2023-04-03T13:04:52;17.40;55.00
64705;DHT22;51131;52.298;13.686;2023-04-03T13:07:23;17.40;54.70
64705;DHT22;51131;52.298;13.686;2023-04-03T13:09:56;17.30;54.80
64705;DHT22;51131;52.298;13.686;2023-04-03T13:12:23;17.30;54.80
64705;DHT22;51131;52.298;13.686;2023-04-03T13:14:57;17.30;54.50
64705;DHT22;51131;52.298;13.686;2023-04-03T13:17:24;17.30;54.40
64705;DHT22;51131;52.298;13.686;2023-04-03T13:19:51;17.30;55.00
64705;DHT22;51131;52.298;13.686;2023-04-03T13:24:55;17.30;55.10
64705;DHT22;51131;52.298;13.686;2023-04-03T13:27:23;17.30;54.40
64705;DHT22;51131;52.298;13.686;2023-04-03T13:29:50;17.30;55.80
64705;DHT22;51131;52.298;13.686;2023-04-03T13:32:21;17.20;56.10
64705;DHT22;51131;52.298;13.686;2023-04-03T13:34:49;17.30;55.40
64705;DHT22;51131;52.298;13.686;2023-04-03T13:37:29;17.30;55.20
64705;DHT22;51131;52.298;13.686;2023-04-03T13:40:18;17.40;55.20
64705;DHT22;51131;52.298;13.686;2023-04-03T13:42:43;17.30;54.80
64705;DHT22;51131;52.298;13.686;2023-04-03T13:47:40;17.30;55.60
64705;DHT22;51131;52.298;13.686;2023-04-03T13:57:57;17.30;55.20
64705;DHT22;51131;52.298;13.686;2023-04-03T14:00:32;17.30;55.20
64705;DHT22;51131;52.298;13.686;2023-04-03T14:03:00;17.20;55.00
64705;DHT22;51131;52.298;13.686;2023-04-03T14:05:27;17.30;55.90
64705;DHT22;51131;52.298;13.686;2023-04-03T14:07:54;17.20;54.40
64705;DHT22;51131;52.298;13.686;2023-04-03T14:10:21;17.20;55.60
64705;DHT22;51131;52.298;13.686;2023-04-03T14:12:48;17.30;56.20
64705;DHT22;51131;52.298;13.686;2023-04-03T14:15:22;17.20;55.10
64705;DHT22;51131;52.298;13.686;2023-04-03T14:17:50;17.30;56.00
64705;DHT22;51131;52.298;13.686;2023-04-03T14:20:19;17.30;56.00
64705;DHT22;51131;52.298;13.686;2023-04-03T14:22:47;17.30;55.80
64705;DHT22;51131;52.298;13.686;2023-04-03T14:25:14;17.30;55.60
64705;DHT22;51131;52.298;13.686;2023-04-03T14:27:42;17.20;55.40
64705;DHT22;51131;52.298;13.686;2023-04-03T14:30:11;17.60;56.00
64705;DHT22;51131;52.298;13.686;2023-04-03T14:32:40;17.30;55.70
64705;DHT22;51131;52.298;13.686;2023-04-03T14:35:06;17.30;55.70
64705;DHT22;51131;52.298;13.686;2023-04-03T14:37:33;17.30;55.20
64705;DHT22;51131;52.298;13.686;2023-04-03T14:40:01;17.40;54.90
64705;DHT22;51131;52.298;13.686;2023-04-03T14:42:29;17.40;55.60
64705;DHT22;51131;52.298;13.686;2023-04-03T14:44:57;17.50;54.60
64705;DHT22;51131;52.298;13.686;2023-04-03T14:47:25;17.50;54.10
64705;DHT22;51131;52.298;13.686;2023-04-03T14:50:00;17.50;54.00
64705;DHT22;51131;52.298;13.686;2023-04-03T14:52:32;17.60;54.50
64705;DHT22;51131;52.298;13.686;2023-04-03T14:54:59;17.80;55.90
64705;DHT22;51131;52.298;13.686;2023-04-03T14:57:27;17.50;56.30
64705;DHT22;51131;52.298;13.686;2023-04-03T14:59:54;17.50;55.30
64705;DHT22;51131;52.298;13.686;2023-04-03T15:04:47;17.40;55.30
64705;DHT22;51131;52.298;13.686;2023-04-03T15:07:17;17.40;54.70
64705;DHT22;51131;52.298;13.686;2023-04-03T15:09:44;17.40;55.40
64705;DHT22;51131;52.298;13.686;2023-04-03T15:12:10;17.40;55.50
64705;DHT22;51131;52.298;13.686;2023-04-03T15:14:37;17.40;54.90
64705;DHT22;51131;52.298;13.686;2023-04-03T15:17:10;17.30;55.20
64705;DHT22;51131;52.298;13.686;2023-04-03T15:19:41;17.30;55.60
64705;DHT22;51131;52.298;13.686;2023-04-03T15:22:10;17.50;54.90
64705;DHT22;51131;52.298;13.686;2023-04-03T15:24:39;17.30;54.70
64705;DHT22;51131;52.298;13.686;2023-04-03T15:27:05;17.30;55.20
64705;DHT22;51131;52.298;13.686;2023-04-03T15:29:32;17.40;55.30
64705;DHT22;51131;52.298;13.686;2023-04-03T15:31:58;17.30;55.20
64705;DHT22;51131;52.298;13.686;2023-04-03T15:34:25;17.40;55.70
64705;DHT22;51131;52.298;13.686;2023-04-03T15:36:52;17.30;55.80
64705;DHT22;51131;52.298;13.686;2023-04-03T15:39:19;17.30;55.30
64705;DHT22;51131;52.298;13.686;2023-04-03T15:41:47;17.30;55.10
64705;DHT22;51131;52.298;13.686;2023-04-03T15:44:13;17.30;56.00
64705;DHT22;51131;52.298;13.686;2023-04-03T15:46:47;17.30;54.90
64705;DHT22;51131;52.298;13.686;2023-04-03T15:49:15;17.30;56.00
64705;DHT22;51131;52.298;13.686;2023-04-03T15:51:42;17.30;54.10
64705;DHT22;51131;52.298;13.686;2023-04-03T15:54:08;17.30;54.00
64705;DHT22;51131;52.298;13.686;2023-04-03T15:56:35;17.30;54.00
64705;DHT22;51131;52.298;13.686;2023-04-03T15:59:02;17.30;54.40
64705;DHT22;51131;52.298;13.686;2023-04-03T16:01:28;17.30;55.60
64705;DHT22;51131;52.298;13.686;2023-04-03T16:03:55;17.30;55.80
64705;DHT22;51131;52.298;13.686;2023-04-03T16:06:22;17.30;54.70
64705;DHT22;51131;52.298;13.686;2023-04-03T16:08:50;17.40;55.20
64705;DHT22;51131;52.298;13.686;2023-04-03T16:11:17;17.40;55.40
64705;DHT22;51131;52.298;13.686;2023-04-03T16:13:44;17.40;55.20
64705;DHT22;51131;52.298;13.686;2023-04-03T16:16:10;17.40;55.00
64705;DHT22;51131;52.298;13.686;2023-04-03T16:18:37;17.50;54.00
64705;DHT22;51131;52.298;13.686;2023-04-03T16:21:04;17.60;53.70
64705;DHT22;51131;52.298;13.686;2023-04-03T16:23:32;17.60;53.40
64705;DHT22;51131;52.298;13.686;2023-04-03T16:25:59;17.70;53.10
64705;DHT22;51131;52.298;13.686;2023-04-03T16:28:25;17.90;53.40
64705;DHT22;51131;52.298;13.686;2023-04-03T16:30:52;17.70;53.50
64705;DHT22;51131;52.298;13.686;2023-04-03T16:33:19;17.70;53.50
64705;DHT22;51131;52.298;13.686;2023-04-03T16:35:48;17.60;53.60
64705;DHT22;51131;52.298;13.686;2023-04-03T16:38:15;17.60;54.70
64705;DHT22;51131;52.298;13.686;2023-04-03T16:40:41;17.60;54.40
64705;DHT22;51131;52.298;13.686;2023-04-03T16:43:08;17.60;53.90
64705;DHT22;51131;52.298;13.686;2023-04-03T16:45:35;17.10;53.40
64705;DHT22;51131;52.298;13.686;2023-04-03T16:48:01;17.80;54.60
64705;DHT22;51131;52.298;13.686;2023-04-03T16:50:28;17.50;54.10
64705;DHT22;51131;52.298;13.686;2023-04-03T16:52:54;17.50;53.70